sensor_id;sensor_type;location;lat;lon;timestamp;P1;durP1;ratioP1;P2;durP2;ratioP2
61960;SDS011;47923;42.506;24.192;2023-04-07T00:01:32;15.93;;;10.27;;
61960;SDS011;47923;42.506;24.192;2023-04-07T00:03:58;18.60;;;11.48;;
61960;SDS011;47923;42.506;24.192;2023-04-07T00:06:23;18.20;;;11.00;;
61960;SDS011;47923;42.506;24.192;2023-04-07T00:08:49;18.15;;;10.85;;
61960;SDS011;47923;42.506;24.192;2023-04-07T00:11:15;18.55;;;10.10;;
61960;SDS011;47923;42.506;24.192;2023-04-07T00:13:40;16.60;;;10.25;;
61960;SDS011;47923;42.506;24.192;2023-04-07T00:16:06;14.27;;;9.63;;
61960;SDS011;47923;42.506;24.192;2023-04-07T00:18:31;18.48;;;10.77;;
61960;SDS011;47923;42.506;24.192;2023-04-07T00:20:57;15.95;;;10.63;;
61960;SDS011;47923;42.506;24.192;2023-04-07T00:23:22;15.95;;;9.80;;
61960;SDS011;47923;42.506;24.192;2023-04-07T00:25:48;15.80;;;10.50;;
61960;SDS011;47923;42.506;24.192;2023-04-07T00:28:15;14.93;;;10.13;;
61960;SDS011;47923;42.506;24.192;2023-04-07T00:30:41;17.40;;;10.65;;
61960;SDS011;47923;42.506;24.192;2023-04-07T00:33:06;14.88;;;10.02;;
61960;SDS011;47923;42.506;24.192;2023-04-07T00:35:32;15.82;;;10.60;;
61960;SDS011;47923;42.506;24.192;2023-04-07T00:37:57;16.20;;;10.80;;
61960;SDS011;47923;42.506;24.192;2023-04-07T00:40:23;17.08;;;10.10;;
61960;SDS011;47923;42.506;24.192;2023-04-07T00:42:48;20.15;;;12.07;;
61960;SDS011;47923;42.506;24.192;2023-04-07T00:45:14;17.52;;;10.93;;
61960;SDS011;47923;42.506;24.192;2023-04-07T00:47:40;16.45;;;11.43;;
61960;SDS011;47923;42.506;24.192;2023-04-07T00:50:05;16.40;;;11.07;;
61960;SDS011;47923;42.506;24.192;2023-04-07T00:52:32;15.32;;;10.55;;
61960;SDS011;47923;42.506;24.192;2023-04-07T00:54:58;16.98;;;11.27;;
61960;SDS011;47923;42.506;24.192;2023-04-07T00:57:24;19.30;;;10.88;;
61960;SDS011;47923;42.506;24.192;2023-04-07T00:59:50;15.60;;;10.13;;
61960;SDS011;47923;42.506;24.192;2023-04-07T01:05:08;19.20;;;11.20;;
61960;SDS011;47923;42.506;24.192;2023-04-07T01:07:43;17.92;;;12.30;;
61960;SDS011;47923;42.506;24.192;2023-04-07T01:10:22;17.70;;;12.50;;
61960;SDS011;47923;42.506;24.192;2023-04-07T01:13:07;14.57;;;11.13;;
61960;SDS011;47923;42.506;24.192;2023-04-07T01:15:56;15.43;;;10.40;;
61960;SDS011;47923;42.506;24.192;2023-04-07T01:18:31;17.75;;;11.48;;
61960;SDS011;47923;42.506;24.192;2023-04-07T01:21:00;19.05;;;11.38;;
61960;SDS011;47923;42.506;24.192;2023-04-07T01:23:34;17.63;;;11.45;;
61960;SDS011;47923;42.506;24.192;2023-04-07T01:31:08;18.33;;;11.82;;
61960;SDS011;47923;42.506;24.192;2023-04-07T01:33:36;20.00;;;11.77;;
61960;SDS011;47923;42.506;24.192;2023-04-07T01:36:04;20.15;;;12.20;;
61960;SDS011;47923;42.506;24.192;2023-04-07T01:38:32;17.98;;;12.40;;
61960;SDS011;47923;42.506;24.192;2023-04-07T01:40:58;18.40;;;11.98;;
61960;SDS011;47923;42.506;24.192;2023-04-07T01:43:26;20.52;;;13.05;;
61960;SDS011;47923;42.506;24.192;2023-04-07T01:45:53;18.98;;;12.60;;
61960;SDS011;47923;42.506;24.192;2023-04-07T01:48:20;17.95;;;12.90;;
61960;SDS011;47923;42.506;24.192;2023-04-07T01:50:46;23.67;;;12.88;;
61960;SDS011;47923;42.506;24.192;2023-04-07T01:53:12;21.75;;;14.52;;
61960;SDS011;47923;42.506;24.192;2023-04-07T01:55:39;21.55;;;12.95;;
61960;SDS011;47923;42.506;24.192;2023-04-07T01:58:06;23.73;;;14.13;;
61960;SDS011;47923;42.506;24.192;2023-04-07T02:00:32;20.77;;;13.40;;
61960;SDS011;47923;42.506;24.192;2023-04-07T02:02:59;21.80;;;13.88;;
61960;SDS011;47923;42.506;24.192;2023-04-07T02:05:44;24.15;;;13.35;;
61960;SDS011;47923;42.506;24.192;2023-04-07T02:08:21;22.98;;;15.50;;
61960;SDS011;47923;42.506;24.192;2023-04-07T02:10:50;23.02;;;15.25;;
61960;SDS011;47923;42.506;24.192;2023-04-07T02:13:17;27.42;;;16.35;;
61960;SDS011;47923;42.506;24.192;2023-04-07T02:15:44;26.13;;;14.55;;
61960;SDS011;47923;42.506;24.192;2023-04-07T02:18:13;22.60;;;13.80;;
61960;SDS011;47923;42.506;24.192;2023-04-07T02:20:41;23.10;;;14.50;;
61960;SDS011;47923;42.506;24.192;2023-04-07T02:23:09;22.92;;;14.85;;
61960;SDS011;47923;42.506;24.192;2023-04-07T02:25:35;33.65;;;23.60;;
61960;SDS011;47923;42.506;24.192;2023-04-07T02:28:02;34.75;;;24.70;;
61960;SDS011;47923;42.506;24.192;2023-04-07T02:30:29;26.52;;;17.50;;
61960;SDS011;47923;42.506;24.192;2023-04-07T02:32:54;25.92;;;16.77;;
61960;SDS011;47923;42.506;24.192;2023-04-07T02:35:20;26.20;;;16.55;;
61960;SDS011;47923;42.506;24.192;2023-04-07T02:37:46;26.88;;;17.15;;
61960;SDS011;47923;42.506;24.192;2023-04-07T02:40:12;27.52;;;16.15;;
61960;SDS011;47923;42.506;24.192;2023-04-07T02:42:39;24.10;;;13.68;;
61960;SDS011;47923;42.506;24.192;2023-04-07T02:45:05;20.85;;;12.75;;
61960;SDS011;47923;42.506;24.192;2023-04-07T02:47:32;26.00;;;17.08;;
61960;SDS011;47923;42.506;24.192;2023-04-07T02:49:59;28.95;;;19.73;;
61960;SDS011;47923;42.506;24.192;2023-04-07T02:52:31;31.30;;;17.52;;
61960;SDS011;47923;42.506;24.192;2023-04-07T02:54:57;23.17;;;15.38;;
61960;SDS011;47923;42.506;24.192;2023-04-07T02:57:22;22.33;;;13.65;;
61960;SDS011;47923;42.506;24.192;2023-04-07T02:59:48;21.52;;;14.10;;
61960;SDS011;47923;42.506;24.192;2023-04-07T03:02:15;21.40;;;13.63;;
61960;SDS011;47923;42.506;24.192;2023-04-07T03:04:43;19.02;;;13.35;;
61960;SDS011;47923;42.506;24.192;2023-04-07T03:07:11;20.23;;;12.75;;
61960;SDS011;47923;42.506;24.192;2023-04-07T03:09:36;23.00;;;15.10;;
61960;SDS011;47923;42.506;24.192;2023-04-07T03:12:02;24.48;;;14.98;;
61960;SDS011;47923;42.506;24.192;2023-04-07T03:14:27;31.73;;;19.83;;
61960;SDS011;47923;42.506;24.192;2023-04-07T03:16:53;28.23;;;16.58;;
61960;SDS011;47923;42.506;24.192;2023-04-07T03:19:18;24.17;;;16.55;;
61960;SDS011;47923;42.506;24.192;2023-04-07T03:21:46;24.08;;;15.77;;
61960;SDS011;47923;42.506;24.192;2023-04-07T03:24:12;25.15;;;14.15;;
61960;SDS011;47923;42.506;24.192;2023-04-07T03:26:37;23.15;;;14.27;;
61960;SDS011;47923;42.506;24.192;2023-04-07T03:29:03;25.88;;;17.50;;
61960;SDS011;47923;42.506;24.192;2023-04-07T03:31:28;25.67;;;17.35;;
61960;SDS011;47923;42.506;24.192;2023-04-07T03:33:54;25.35;;;16.50;;
61960;SDS011;47923;42.506;24.192;2023-04-07T03:36:19;27.40;;;17.05;;
61960;SDS011;47923;42.506;24.192;2023-04-07T03:38:45;30.90;;;19.33;;
61960;SDS011;47923;42.506;24.192;2023-04-07T03:41:11;27.65;;;18.77;;
61960;SDS011;47923;42.506;24.192;2023-04-07T03:43:37;28.73;;;19.45;;
61960;SDS011;47923;42.506;24.192;2023-04-07T03:46:02;30.77;;;19.55;;
61960;SDS011;47923;42.506;24.192;2023-04-07T03:48:27;27.77;;;18.10;;
61960;SDS011;47923;42.506;24.192;2023-04-07T03:50:53;49.10;;;31.20;;
61960;SDS011;47923;42.506;24.192;2023-04-07T03:53:18;38.38;;;23.70;;
61960;SDS011;47923;42.506;24.192;2023-04-07T03:55:44;31.95;;;19.95;;
61960;SDS011;47923;42.506;24.192;2023-04-07T03:58:10;29.17;;;19.05;;
61960;SDS011;47923;42.506;24.192;2023-04-07T04:00:35;33.55;;;20.50;;
61960;SDS011;47923;42.506;24.192;2023-04-07T04:03:01;25.65;;;16.90;;
61960;SDS011;47923;42.506;24.192;2023-04-07T04:05:26;29.27;;;15.00;;
61960;SDS011;47923;42.506;24.192;2023-04-07T04:07:54;21.17;;;13.80;;
61960;SDS011;47923;42.506;24.192;2023-04-07T04:10:20;32.92;;;22.42;;
61960;SDS011;47923;42.506;24.192;2023-04-07T04:12:48;38.55;;;25.73;;
61960;SDS011;47923;42.506;24.192;2023-04-07T04:15:16;37.78;;;25.83;;
61960;SDS011;47923;42.506;24.192;2023-04-07T04:17:41;32.88;;;22.50;;
61960;SDS011;47923;42.506;24.192;2023-04-07T04:20:07;27.48;;;17.42;;
61960;SDS011;47923;42.506;24.192;2023-04-07T04:22:33;26.17;;;16.05;;
61960;SDS011;47923;42.506;24.192;2023-04-07T04:25:03;26.83;;;15.68;;
61960;SDS011;47923;42.506;24.192;2023-04-07T04:27:31;27.40;;;16.65;;
61960;SDS011;47923;42.506;24.192;2023-04-07T04:29:56;36.10;;;20.70;;
61960;SDS011;47923;42.506;24.192;2023-04-07T04:32:22;46.13;;;28.77;;
61960;SDS011;47923;42.506;24.192;2023-04-07T04:34:49;44.05;;;27.08;;
61960;SDS011;47923;42.506;24.192;2023-04-07T04:37:15;43.17;;;25.33;;
61960;SDS011;47923;42.506;24.192;2023-04-07T04:39:40;42.15;;;23.65;;
61960;SDS011;47923;42.506;24.192;2023-04-07T04:42:05;44.40;;;25.05;;
61960;SDS011;47923;42.506;24.192;2023-04-07T04:44:31;47.40;;;28.83;;
61960;SDS011;47923;42.506;24.192;2023-04-07T04:46:56;40.63;;;24.05;;
61960;SDS011;47923;42.506;24.192;2023-04-07T04:49:24;35.22;;;20.42;;
61960;SDS011;47923;42.506;24.192;2023-04-07T04:51:50;28.50;;;18.50;;
61960;SDS011;47923;42.506;24.192;2023-04-07T04:54:17;30.27;;;18.67;;
61960;SDS011;47923;42.506;24.192;2023-04-07T04:56:44;33.70;;;19.58;;
61960;SDS011;47923;42.506;24.192;2023-04-07T04:59:12;33.85;;;21.90;;
61960;SDS011;47923;42.506;24.192;2023-04-07T05:01:37;40.67;;;25.83;;
61960;SDS011;47923;42.506;24.192;2023-04-07T05:04:05;37.95;;;24.58;;
61960;SDS011;47923;42.506;24.192;2023-04-07T05:06:33;37.17;;;25.30;;
61960;SDS011;47923;42.506;24.192;2023-04-07T05:08:58;43.03;;;27.45;;
61960;SDS011;47923;42.506;24.192;2023-04-07T05:11:23;48.28;;;31.67;;
61960;SDS011;47923;42.506;24.192;2023-04-07T05:13:49;44.80;;;29.98;;
61960;SDS011;47923;42.506;24.192;2023-04-07T05:16:15;47.13;;;30.27;;
61960;SDS011;47923;42.506;24.192;2023-04-07T05:18:40;72.25;;;46.00;;
61960;SDS011;47923;42.506;24.192;2023-04-07T05:21:06;62.78;;;41.50;;
61960;SDS011;47923;42.506;24.192;2023-04-07T05:23:31;51.35;;;35.08;;
61960;SDS011;47923;42.506;24.192;2023-04-07T05:25:57;60.60;;;37.80;;
61960;SDS011;47923;42.506;24.192;2023-04-07T05:28:22;61.10;;;39.10;;
61960;SDS011;47923;42.506;24.192;2023-04-07T05:30:49;69.28;;;45.47;;
61960;SDS011;47923;42.506;24.192;2023-04-07T05:33:14;72.10;;;48.50;;
61960;SDS011;47923;42.506;24.192;2023-04-07T05:35:40;88.22;;;58.22;;
61960;SDS011;47923;42.506;24.192;2023-04-07T05:38:06;99.25;;;72.90;;
61960;SDS011;47923;42.506;24.192;2023-04-07T05:40:31;103.32;;;78.93;;
61960;SDS011;47923;42.506;24.192;2023-04-07T05:42:57;69.00;;;49.55;;
61960;SDS011;47923;42.506;24.192;2023-04-07T05:45:22;84.28;;;55.10;;
61960;SDS011;47923;42.506;24.192;2023-04-07T05:47:48;59.92;;;45.15;;
61960;SDS011;47923;42.506;24.192;2023-04-07T05:50:15;46.83;;;37.80;;
61960;SDS011;47923;42.506;24.192;2023-04-07T05:52:41;47.58;;;38.38;;
61960;SDS011;47923;42.506;24.192;2023-04-07T05:55:06;35.15;;;30.75;;
61960;SDS011;47923;42.506;24.192;2023-04-07T05:57:32;36.53;;;32.47;;
61960;SDS011;47923;42.506;24.192;2023-04-07T05:59:58;34.50;;;30.55;;
61960;SDS011;47923;42.506;24.192;2023-04-07T06:02:24;28.75;;;25.30;;
61960;SDS011;47923;42.506;24.192;2023-04-07T06:04:50;38.00;;;33.47;;
61960;SDS011;47923;42.506;24.192;2023-04-07T06:07:15;31.95;;;26.17;;
61960;SDS011;47923;42.506;24.192;2023-04-07T06:09:41;25.65;;;21.98;;
61960;SDS011;47923;42.506;24.192;2023-04-07T06:12:06;23.40;;;20.27;;
61960;SDS011;47923;42.506;24.192;2023-04-07T06:14:33;26.50;;;22.73;;
61960;SDS011;47923;42.506;24.192;2023-04-07T06:16:59;29.35;;;25.92;;
61960;SDS011;47923;42.506;24.192;2023-04-07T06:19:25;25.33;;;22.63;;
61960;SDS011;47923;42.506;24.192;2023-04-07T06:21:51;28.65;;;24.25;;
61960;SDS011;47923;42.506;24.192;2023-04-07T06:24:17;29.08;;;25.27;;
61960;SDS011;47923;42.506;24.192;2023-04-07T06:26:43;24.25;;;21.65;;
61960;SDS011;47923;42.506;24.192;2023-04-07T06:29:09;22.05;;;19.70;;
61960;SDS011;47923;42.506;24.192;2023-04-07T06:31:35;29.13;;;21.67;;
61960;SDS011;47923;42.506;24.192;2023-04-07T06:34:01;19.30;;;17.20;;
61960;SDS011;47923;42.506;24.192;2023-04-07T06:36:26;13.60;;;10.27;;
61960;SDS011;47923;42.506;24.192;2023-04-07T06:38:53;10.38;;;7.82;;
61960;SDS011;47923;42.506;24.192;2023-04-07T06:41:18;14.85;;;10.05;;
61960;SDS011;47923;42.506;24.192;2023-04-07T06:43:45;12.15;;;7.80;;
61960;SDS011;47923;42.506;24.192;2023-04-07T06:46:12;12.20;;;6.90;;
61960;SDS011;47923;42.506;24.192;2023-04-07T06:48:37;8.52;;;6.28;;
61960;SDS011;47923;42.506;24.192;2023-04-07T06:51:02;9.40;;;6.65;;
61960;SDS011;47923;42.506;24.192;2023-04-07T06:53:28;11.93;;;7.60;;
61960;SDS011;47923;42.506;24.192;2023-04-07T06:56:03;8.52;;;6.05;;
61960;SDS011;47923;42.506;24.192;2023-04-07T06:58:33;12.10;;;6.75;;
61960;SDS011;47923;42.506;24.192;2023-04-07T07:00:59;13.88;;;7.80;;
61960;SDS011;47923;42.506;24.192;2023-04-07T07:03:25;9.30;;;6.60;;
61960;SDS011;47923;42.506;24.192;2023-04-07T07:05:53;11.68;;;7.82;;
61960;SDS011;47923;42.506;24.192;2023-04-07T07:08:22;10.10;;;7.43;;
61960;SDS011;47923;42.506;24.192;2023-04-07T07:10:48;10.75;;;6.38;;
61960;SDS011;47923;42.506;24.192;2023-04-07T07:13:14;10.38;;;6.70;;
61960;SDS011;47923;42.506;24.192;2023-04-07T07:15:40;10.02;;;5.55;;
61960;SDS011;47923;42.506;24.192;2023-04-07T07:18:05;9.90;;;6.75;;
61960;SDS011;47923;42.506;24.192;2023-04-07T07:20:30;11.32;;;6.30;;
61960;SDS011;47923;42.506;24.192;2023-04-07T07:22:56;11.43;;;7.22;;
61960;SDS011;47923;42.506;24.192;2023-04-07T07:25:22;9.07;;;6.63;;
61960;SDS011;47923;42.506;24.192;2023-04-07T07:27:48;9.25;;;6.22;;
61960;SDS011;47923;42.506;24.192;2023-04-07T07:30:17;16.92;;;12.38;;
61960;SDS011;47923;42.506;24.192;2023-04-07T07:32:46;10.13;;;6.95;;
61960;SDS011;47923;42.506;24.192;2023-04-07T07:35:11;9.77;;;6.40;;
61960;SDS011;47923;42.506;24.192;2023-04-07T07:37:37;10.52;;;5.65;;
61960;SDS011;47923;42.506;24.192;2023-04-07T07:40:03;11.13;;;5.50;;
61960;SDS011;47923;42.506;24.192;2023-04-07T07:42:29;9.30;;;5.85;;
61960;SDS011;47923;42.506;24.192;2023-04-07T07:44:55;11.60;;;6.43;;
61960;SDS011;47923;42.506;24.192;2023-04-07T07:47:21;8.38;;;5.20;;
61960;SDS011;47923;42.506;24.192;2023-04-07T07:49:46;8.95;;;5.45;;
61960;SDS011;47923;42.506;24.192;2023-04-07T07:52:12;7.63;;;5.00;;
61960;SDS011;47923;42.506;24.192;2023-04-07T07:54:37;7.80;;;5.00;;
61960;SDS011;47923;42.506;24.192;2023-04-07T07:57:03;7.55;;;4.93;;
61960;SDS011;47923;42.506;24.192;2023-04-07T07:59:30;8.57;;;4.85;;
61960;SDS011;47923;42.506;24.192;2023-04-07T08:01:55;14.20;;;5.93;;
61960;SDS011;47923;42.506;24.192;2023-04-07T08:04:23;9.48;;;5.03;;
61960;SDS011;47923;42.506;24.192;2023-04-07T08:06:54;19.25;;;15.73;;
61960;SDS011;47923;42.506;24.192;2023-04-07T08:09:37;9.00;;;5.60;;
61960;SDS011;47923;42.506;24.192;2023-04-07T08:18:07;7.38;;;4.70;;
61960;SDS011;47923;42.506;24.192;2023-04-07T08:20:41;6.90;;;4.90;;
61960;SDS011;47923;42.506;24.192;2023-04-07T08:23:12;9.77;;;5.07;;
61960;SDS011;47923;42.506;24.192;2023-04-07T08:25:43;10.75;;;5.88;;
61960;SDS011;47923;42.506;24.192;2023-04-07T08:28:37;8.18;;;5.38;;
61960;SDS011;47923;42.506;24.192;2023-04-07T08:31:13;11.75;;;5.93;;
61960;SDS011;47923;42.506;24.192;2023-04-07T08:33:41;8.32;;;4.95;;
61960;SDS011;47923;42.506;24.192;2023-04-07T08:36:12;8.07;;;4.75;;
61960;SDS011;47923;42.506;24.192;2023-04-07T08:38:37;6.30;;;3.92;;
61960;SDS011;47923;42.506;24.192;2023-04-07T08:41:07;9.18;;;4.70;;
61960;SDS011;47923;42.506;24.192;2023-04-07T08:43:37;10.52;;;5.30;;
61960;SDS011;47923;42.506;24.192;2023-04-07T08:46:10;6.43;;;4.30;;
61960;SDS011;47923;42.506;24.192;2023-04-07T08:48:38;7.68;;;3.47;;
61960;SDS011;47923;42.506;24.192;2023-04-07T08:51:09;12.50;;;9.10;;
61960;SDS011;47923;42.506;24.192;2023-04-07T08:53:47;11.70;;;7.25;;
61960;SDS011;47923;42.506;24.192;2023-04-07T08:56:15;7.82;;;4.68;;
61960;SDS011;47923;42.506;24.192;2023-04-07T08:58:41;8.30;;;4.28;;
61960;SDS011;47923;42.506;24.192;2023-04-07T09:01:08;7.95;;;5.20;;
61960;SDS011;47923;42.506;24.192;2023-04-07T09:03:35;8.60;;;4.72;;
61960;SDS011;47923;42.506;24.192;2023-04-07T09:06:02;8.93;;;4.80;;
61960;SDS011;47923;42.506;24.192;2023-04-07T09:08:28;9.50;;;4.50;;
61960;SDS011;47923;42.506;24.192;2023-04-07T09:10:55;8.38;;;4.82;;
61960;SDS011;47923;42.506;24.192;2023-04-07T09:13:21;7.53;;;4.03;;
61960;SDS011;47923;42.506;24.192;2023-04-07T09:15:48;6.95;;;4.72;;
61960;SDS011;47923;42.506;24.192;2023-04-07T09:18:13;6.90;;;4.47;;
61960;SDS011;47923;42.506;24.192;2023-04-07T09:25:59;9.55;;;5.22;;
61960;SDS011;47923;42.506;24.192;2023-04-07T09:28:41;6.35;;;4.22;;
61960;SDS011;47923;42.506;24.192;2023-04-07T09:31:07;7.22;;;4.47;;
61960;SDS011;47923;42.506;24.192;2023-04-07T09:33:33;7.15;;;4.05;;
61960;SDS011;47923;42.506;24.192;2023-04-07T09:36:00;6.85;;;4.30;;
61960;SDS011;47923;42.506;24.192;2023-04-07T09:38:32;6.43;;;3.97;;
61960;SDS011;47923;42.506;24.192;2023-04-07T09:43:35;22.35;;;6.72;;
61960;SDS011;47923;42.506;24.192;2023-04-07T09:46:17;8.18;;;4.15;;
61960;SDS011;47923;42.506;24.192;2023-04-07T09:48:44;9.65;;;8.68;;
61960;SDS011;47923;42.506;24.192;2023-04-07T09:51:14;6.80;;;4.57;;
61960;SDS011;47923;42.506;24.192;2023-04-07T09:53:48;10.10;;;5.43;;
61960;SDS011;47923;42.506;24.192;2023-04-07T09:56:16;7.00;;;4.55;;
61960;SDS011;47923;42.506;24.192;2023-04-07T09:58:44;6.75;;;4.13;;
61960;SDS011;47923;42.506;24.192;2023-04-07T10:01:11;7.25;;;4.72;;
61960;SDS011;47923;42.506;24.192;2023-04-07T10:03:38;7.82;;;4.40;;
61960;SDS011;47923;42.506;24.192;2023-04-07T10:06:04;15.43;;;12.10;;
61960;SDS011;47923;42.506;24.192;2023-04-07T10:08:37;9.18;;;6.78;;
61960;SDS011;47923;42.506;24.192;2023-04-07T10:11:04;8.57;;;5.20;;
61960;SDS011;47923;42.506;24.192;2023-04-07T10:13:34;10.60;;;5.85;;
61960;SDS011;47923;42.506;24.192;2023-04-07T10:16:04;9.85;;;6.13;;
61960;SDS011;47923;42.506;24.192;2023-04-07T10:18:34;9.32;;;5.57;;
61960;SDS011;47923;42.506;24.192;2023-04-07T10:21:04;6.97;;;4.13;;
61960;SDS011;47923;42.506;24.192;2023-04-07T10:26:49;9.40;;;4.85;;
61960;SDS011;47923;42.506;24.192;2023-04-07T10:29:17;8.48;;;4.93;;
61960;SDS011;47923;42.506;24.192;2023-04-07T10:31:44;7.38;;;4.45;;
61960;SDS011;47923;42.506;24.192;2023-04-07T10:34:10;7.25;;;4.95;;
61960;SDS011;47923;42.506;24.192;2023-04-07T10:36:35;7.53;;;4.63;;
61960;SDS011;47923;42.506;24.192;2023-04-07T10:39:37;10.95;;;7.03;;
61960;SDS011;47923;42.506;24.192;2023-04-07T10:42:03;9.30;;;6.28;;
61960;SDS011;47923;42.506;24.192;2023-04-07T10:47:04;11.07;;;6.53;;
61960;SDS011;47923;42.506;24.192;2023-04-07T10:49:31;11.70;;;7.35;;
61960;SDS011;47923;42.506;24.192;2023-04-07T10:54:35;10.27;;;6.15;;
61960;SDS011;47923;42.506;24.192;2023-04-07T10:59:27;11.93;;;8.27;;
61960;SDS011;47923;42.506;24.192;2023-04-07T11:04:37;9.27;;;5.40;;
61960;SDS011;47923;42.506;24.192;2023-04-07T11:07:03;8.20;;;5.13;;
61960;SDS011;47923;42.506;24.192;2023-04-07T11:09:28;9.63;;;5.32;;
61960;SDS011;47923;42.506;24.192;2023-04-07T11:11:54;13.70;;;6.40;;
61960;SDS011;47923;42.506;24.192;2023-04-07T11:14:24;12.55;;;6.85;;
61960;SDS011;47923;42.506;24.192;2023-04-07T11:16:51;11.07;;;6.03;;
61960;SDS011;47923;42.506;24.192;2023-04-07T11:19:17;10.43;;;5.55;;
61960;SDS011;47923;42.506;24.192;2023-04-07T11:21:43;8.75;;;5.00;;
61960;SDS011;47923;42.506;24.192;2023-04-07T11:24:08;11.00;;;5.55;;
61960;SDS011;47923;42.506;24.192;2023-04-07T11:26:38;12.07;;;6.30;;
61960;SDS011;47923;42.506;24.192;2023-04-07T11:29:05;9.30;;;5.82;;
61960;SDS011;47923;42.506;24.192;2023-04-07T11:31:32;10.10;;;5.65;;
61960;SDS011;47923;42.506;24.192;2023-04-07T11:33:58;8.02;;;4.65;;
61960;SDS011;47923;42.506;24.192;2023-04-07T11:36:32;10.48;;;5.70;;
61960;SDS011;47923;42.506;24.192;2023-04-07T11:39:00;8.57;;;5.30;;
61960;SDS011;47923;42.506;24.192;2023-04-07T11:41:28;11.50;;;6.43;;
61960;SDS011;47923;42.506;24.192;2023-04-07T11:44:10;9.65;;;5.70;;
61960;SDS011;47923;42.506;24.192;2023-04-07T11:46:50;11.48;;;5.60;;
61960;SDS011;47923;42.506;24.192;2023-04-07T11:49:27;8.00;;;5.20;;
61960;SDS011;47923;42.506;24.192;2023-04-07T11:52:00;12.20;;;5.68;;
61960;SDS011;47923;42.506;24.192;2023-04-07T11:54:38;9.77;;;5.28;;
61960;SDS011;47923;42.506;24.192;2023-04-07T11:57:03;7.35;;;5.18;;
61960;SDS011;47923;42.506;24.192;2023-04-07T11:59:29;7.68;;;4.80;;
61960;SDS011;47923;42.506;24.192;2023-04-07T12:01:55;8.07;;;5.13;;
61960;SDS011;47923;42.506;24.192;2023-04-07T12:04:21;8.95;;;5.43;;
61960;SDS011;47923;42.506;24.192;2023-04-07T12:06:47;9.20;;;5.38;;
61960;SDS011;47923;42.506;24.192;2023-04-07T12:09:29;7.57;;;4.90;;
61960;SDS011;47923;42.506;24.192;2023-04-07T12:11:56;8.82;;;5.63;;
61960;SDS011;47923;42.506;24.192;2023-04-07T12:14:22;8.20;;;4.78;;
61960;SDS011;47923;42.506;24.192;2023-04-07T12:16:49;122.90;;;16.08;;
61960;SDS011;47923;42.506;24.192;2023-04-07T12:19:15;7.35;;;4.43;;
61960;SDS011;47923;42.506;24.192;2023-04-07T12:21:40;13.95;;;6.07;;
61960;SDS011;47923;42.506;24.192;2023-04-07T12:24:06;10.15;;;5.80;;
61960;SDS011;47923;42.506;24.192;2023-04-07T12:26:31;9.88;;;5.90;;
61960;SDS011;47923;42.506;24.192;2023-04-07T12:28:57;19.42;;;5.55;;
61960;SDS011;47923;42.506;24.192;2023-04-07T12:31:28;26.65;;;7.10;;
61960;SDS011;47923;42.506;24.192;2023-04-07T12:33:55;12.18;;;5.70;;
61960;SDS011;47923;42.506;24.192;2023-04-07T12:36:22;10.65;;;5.65;;
61960;SDS011;47923;42.506;24.192;2023-04-07T12:38:47;10.90;;;5.75;;
61960;SDS011;47923;42.506;24.192;2023-04-07T12:41:13;14.43;;;9.07;;
61960;SDS011;47923;42.506;24.192;2023-04-07T12:43:39;11.70;;;5.72;;
61960;SDS011;47923;42.506;24.192;2023-04-07T12:46:04;11.93;;;5.45;;
61960;SDS011;47923;42.506;24.192;2023-04-07T12:48:29;11.48;;;5.65;;
61960;SDS011;47923;42.506;24.192;2023-04-07T12:50:55;11.05;;;6.13;;
61960;SDS011;47923;42.506;24.192;2023-04-07T12:53:20;8.82;;;6.30;;
61960;SDS011;47923;42.506;24.192;2023-04-07T12:55:47;11.52;;;5.78;;
61960;SDS011;47923;42.506;24.192;2023-04-07T12:58:12;8.65;;;5.47;;
61960;SDS011;47923;42.506;24.192;2023-04-07T13:00:38;9.27;;;5.78;;
61960;SDS011;47923;42.506;24.192;2023-04-07T13:03:05;11.23;;;6.07;;
61960;SDS011;47923;42.506;24.192;2023-04-07T13:05:31;8.80;;;5.35;;
61960;SDS011;47923;42.506;24.192;2023-04-07T13:07:56;9.85;;;5.40;;
61960;SDS011;47923;42.506;24.192;2023-04-07T13:10:22;7.72;;;4.78;;
61960;SDS011;47923;42.506;24.192;2023-04-07T13:12:47;8.85;;;5.00;;
61960;SDS011;47923;42.506;24.192;2023-04-07T13:15:13;7.88;;;4.60;;
61960;SDS011;47923;42.506;24.192;2023-04-07T13:17:38;8.90;;;4.88;;
61960;SDS011;47923;42.506;24.192;2023-04-07T13:20:04;8.45;;;5.20;;
61960;SDS011;47923;42.506;24.192;2023-04-07T13:22:30;9.88;;;4.50;;
61960;SDS011;47923;42.506;24.192;2023-04-07T13:24:56;8.10;;;5.13;;
61960;SDS011;47923;42.506;24.192;2023-04-07T13:27:21;20.00;;;14.68;;
61960;SDS011;47923;42.506;24.192;2023-04-07T13:29:47;10.18;;;6.22;;
61960;SDS011;47923;42.506;24.192;2023-04-07T13:32:15;9.60;;;5.97;;
61960;SDS011;47923;42.506;24.192;2023-04-07T13:34:46;10.40;;;5.60;;
61960;SDS011;47923;42.506;24.192;2023-04-07T13:37:16;10.20;;;5.35;;
61960;SDS011;47923;42.506;24.192;2023-04-07T13:39:43;10.45;;;5.57;;
61960;SDS011;47923;42.506;24.192;2023-04-07T13:42:09;10.60;;;6.18;;
61960;SDS011;47923;42.506;24.192;2023-04-07T13:44:35;10.45;;;5.65;;
61960;SDS011;47923;42.506;24.192;2023-04-07T13:47:01;9.30;;;5.20;;
61960;SDS011;47923;42.506;24.192;2023-04-07T13:49:27;10.70;;;7.63;;
61960;SDS011;47923;42.506;24.192;2023-04-07T13:51:53;11.02;;;6.25;;
61960;SDS011;47923;42.506;24.192;2023-04-07T13:54:18;10.13;;;6.13;;
61960;SDS011;47923;42.506;24.192;2023-04-07T13:56:44;11.82;;;7.15;;
61960;SDS011;47923;42.506;24.192;2023-04-07T13:59:11;10.98;;;6.20;;
61960;SDS011;47923;42.506;24.192;2023-04-07T14:01:36;9.35;;;5.70;;
61960;SDS011;47923;42.506;24.192;2023-04-07T14:04:03;9.20;;;5.25;;
61960;SDS011;47923;42.506;24.192;2023-04-07T14:06:29;10.48;;;5.50;;
61960;SDS011;47923;42.506;24.192;2023-04-07T14:08:56;13.52;;;7.32;;
61960;SDS011;47923;42.506;24.192;2023-04-07T14:11:22;15.20;;;8.45;;
61960;SDS011;47923;42.506;24.192;2023-04-07T14:13:48;10.43;;;6.15;;
61960;SDS011;47923;42.506;24.192;2023-04-07T14:16:14;8.60;;;4.65;;
61960;SDS011;47923;42.506;24.192;2023-04-07T14:18:40;10.15;;;6.00;;
61960;SDS011;47923;42.506;24.192;2023-04-07T14:21:06;10.25;;;6.03;;
61960;SDS011;47923;42.506;24.192;2023-04-07T14:23:32;9.95;;;6.55;;
61960;SDS011;47923;42.506;24.192;2023-04-07T14:25:57;10.15;;;5.35;;
61960;SDS011;47923;42.506;24.192;2023-04-07T14:28:23;12.15;;;5.60;;
61960;SDS011;47923;42.506;24.192;2023-04-07T14:30:49;11.50;;;6.35;;
61960;SDS011;47923;42.506;24.192;2023-04-07T14:33:14;12.00;;;8.02;;
61960;SDS011;47923;42.506;24.192;2023-04-07T14:35:41;12.48;;;7.68;;
61960;SDS011;47923;42.506;24.192;2023-04-07T14:38:07;12.85;;;8.57;;
61960;SDS011;47923;42.506;24.192;2023-04-07T14:40:33;13.55;;;8.60;;
61960;SDS011;47923;42.506;24.192;2023-04-07T14:42:58;11.30;;;6.93;;
61960;SDS011;47923;42.506;24.192;2023-04-07T14:45:24;12.48;;;6.88;;
61960;SDS011;47923;42.506;24.192;2023-04-07T14:47:49;13.27;;;8.40;;
61960;SDS011;47923;42.506;24.192;2023-04-07T14:50:17;12.77;;;8.63;;
61960;SDS011;47923;42.506;24.192;2023-04-07T14:52:43;15.25;;;8.02;;
61960;SDS011;47923;42.506;24.192;2023-04-07T14:55:11;15.65;;;7.82;;